sensor_id;sensor_type;location;lat;lon;timestamp;pressure;altitude;pressure_sealevel;temperature;humidity
6132;BME280;3097;42.692;23.278;2022-10-31T00:01:18;95494.44;;;14.89;60.61
6132;BME280;3097;42.692;23.278;2022-10-31T00:03:44;95463.50;;;14.71;60.54
6132;BME280;3097;42.692;23.278;2022-10-31T00:06:09;95494.91;;;14.86;60.66
6132;BME280;3097;42.692;23.278;2022-10-31T00:08:35;95489.88;;;14.80;60.91
6132;BME280;3097;42.692;23.278;2022-10-31T00:11:00;95502.13;;;14.84;60.86
6132;BME280;3097;42.692;23.278;2022-10-31T00:13:26;95457.31;;;14.60;60.97
6132;BME280;3097;42.692;23.278;2022-10-31T00:15:52;95500.78;;;14.82;61.24
6132;BME280;3097;42.692;23.278;2022-10-31T00:18:17;95497.78;;;14.73;61.12
6132;BME280;3097;42.692;23.278;2022-10-31T00:20:43;95495.31;;;14.66;61.51
6132;BME280;3097;42.692;23.278;2022-10-31T00:23:10;95494.66;;;14.59;61.95
6132;BME280;3097;42.692;23.278;2022-10-31T00:25:37;95492.75;;;14.55;61.97
6132;BME280;3097;42.692;23.278;2022-10-31T00:28:05;95490.06;;;14.50;62.42
6132;BME280;3097;42.692;23.278;2022-10-31T00:30:31;95491.31;;;14.47;62.41
6132;BME280;3097;42.692;23.278;2022-10-31T00:32:57;95490.06;;;14.50;62.46
6132;BME280;3097;42.692;23.278;2022-10-31T00:35:22;95491.97;;;14.54;62.36
6132;BME280;3097;42.692;23.278;2022-10-31T00:37:47;95489.94;;;14.56;62.32
6132;BME280;3097;42.692;23.278;2022-10-31T00:40:13;95483.97;;;14.56;62.41
6132;BME280;3097;42.692;23.278;2022-10-31T00:42:39;95477.53;;;14.58;62.35
6132;BME280;3097;42.692;23.278;2022-10-31T00:45:05;95475.84;;;14.52;62.50
6132;BME280;3097;42.692;23.278;2022-10-31T00:47:30;95477.97;;;14.55;62.61
6132;BME280;3097;42.692;23.278;2022-10-31T00:49:56;95475.97;;;14.57;62.68
6132;BME280;3097;42.692;23.278;2022-10-31T00:52:21;95475.63;;;14.54;62.96
6132;BME280;3097;42.692;23.278;2022-10-31T00:54:47;95476.19;;;14.56;62.68
6132;BME280;3097;42.692;23.278;2022-10-31T00:57:12;95475.63;;;14.54;63.31
6132;BME280;3097;42.692;23.278;2022-10-31T00:59:37;95483.16;;;14.55;63.37
6132;BME280;3097;42.692;23.278;2022-10-31T01:02:03;95485.34;;;14.47;63.25
6132;BME280;3097;42.692;23.278;2022-10-31T01:04:28;95492.69;;;14.38;63.51
6132;BME280;3097;42.692;23.278;2022-10-31T01:06:54;95486.59;;;14.32;63.37
6132;BME280;3097;42.692;23.278;2022-10-31T01:09:19;95497.97;;;14.31;64.10
6132;BME280;3097;42.692;23.278;2022-10-31T01:11:45;95493.91;;;14.36;64.39
6132;BME280;3097;42.692;23.278;2022-10-31T01:14:10;95493.81;;;14.30;64.64
6132;BME280;3097;42.692;23.278;2022-10-31T01:16:35;95496.88;;;14.16;65.42
6132;BME280;3097;42.692;23.278;2022-10-31T01:19:01;95468.72;;;13.84;65.73
6132;BME280;3097;42.692;23.278;2022-10-31T01:21:28;95503.00;;;13.98;66.31
6132;BME280;3097;42.692;23.278;2022-10-31T01:23:55;95497.34;;;13.89;66.24
6132;BME280;3097;42.692;23.278;2022-10-31T01:26:26;95504.34;;;13.89;66.39
6132;BME280;3097;42.692;23.278;2022-10-31T01:31:30;95494.78;;;13.89;66.57
6132;BME280;3097;42.692;23.278;2022-10-31T01:33:56;95497.69;;;13.93;66.75
6132;BME280;3097;42.692;23.278;2022-10-31T01:36:25;95431.25;;;13.52;67.06
6132;BME280;3097;42.692;23.278;2022-10-31T01:38:53;95483.47;;;14.07;66.68
6132;BME280;3097;42.692;23.278;2022-10-31T01:41:21;95498.66;;;14.15;66.80
6132;BME280;3097;42.692;23.278;2022-10-31T01:43:58;95497.97;;;14.31;66.81
6132;BME280;3097;42.692;23.278;2022-10-31T01:46:31;95500.66;;;14.37;66.92
6132;BME280;3097;42.692;23.278;2022-10-31T01:49:00;95500.13;;;14.46;66.15
6132;BME280;3097;42.692;23.278;2022-10-31T01:51:33;95504.63;;;14.51;66.45
6132;BME280;3097;42.692;23.278;2022-10-31T01:54:12;95492.09;;;14.48;66.32
6132;BME280;3097;42.692;23.278;2022-10-31T01:56:43;95508.66;;;14.58;66.64
6132;BME280;3097;42.692;23.278;2022-10-31T01:59:16;95450.63;;;14.24;66.19
6132;BME280;3097;42.692;23.278;2022-10-31T02:01:43;95499.72;;;14.66;66.44
6132;BME280;3097;42.692;23.278;2022-10-31T02:04:09;95505.00;;;14.71;66.12
6132;BME280;3097;42.692;23.278;2022-10-31T02:06:44;95500.38;;;14.73;65.82
6132;BME280;3097;42.692;23.278;2022-10-31T02:09:12;95504.66;;;14.79;65.77
6132;BME280;3097;42.692;23.278;2022-10-31T02:11:41;95475.69;;;14.70;65.75
6132;BME280;3097;42.692;23.278;2022-10-31T02:14:07;95492.88;;;14.88;66.16
6132;BME280;3097;42.692;23.278;2022-10-31T02:16:33;95490.38;;;14.93;66.14
6132;BME280;3097;42.692;23.278;2022-10-31T02:18:59;95484.03;;;14.89;66.14
6132;BME280;3097;42.692;23.278;2022-10-31T02:27:55;95504.84;;;15.06;65.82
6132;BME280;3097;42.692;23.278;2022-10-31T02:30:19;95472.19;;;14.93;65.86
6132;BME280;3097;42.692;23.278;2022-10-31T02:33:25;95511.09;;;15.22;65.72
6132;BME280;3097;42.692;23.278;2022-10-31T02:36:09;95508.50;;;15.22;66.12
6132;BME280;3097;42.692;23.278;2022-10-31T02:44:02;95521.56;;;15.10;66.54
6132;BME280;3097;42.692;23.278;2022-10-31T02:49:18;95524.25;;;15.15;65.90
6132;BME280;3097;42.692;23.278;2022-10-31T02:51:47;95526.06;;;15.15;66.25
6132;BME280;3097;42.692;23.278;2022-10-31T02:54:22;95492.41;;;14.91;66.11
6132;BME280;3097;42.692;23.278;2022-10-31T02:56:48;95529.09;;;15.11;66.02
6132;BME280;3097;42.692;23.278;2022-10-31T02:59:15;95530.16;;;15.10;66.36
6132;BME280;3097;42.692;23.278;2022-10-31T03:10:27;95535.97;;;15.18;66.59
6132;BME280;3097;42.692;23.278;2022-10-31T03:13:09;95537.00;;;15.17;66.47
6132;BME280;3097;42.692;23.278;2022-10-31T03:15:49;95529.09;;;15.11;66.89
6132;BME280;3097;42.692;23.278;2022-10-31T03:18:40;95531.63;;;15.06;67.33
6132;BME280;3097;42.692;23.278;2022-10-31T03:21:12;95503.72;;;14.85;67.35
6132;BME280;3097;42.692;23.278;2022-10-31T03:23:42;95532.09;;;15.03;67.40
6132;BME280;3097;42.692;23.278;2022-10-31T03:26:11;95525.00;;;14.99;67.47
6132;BME280;3097;42.692;23.278;2022-10-31T03:28:52;95537.25;;;14.87;68.22
6132;BME280;3097;42.692;23.278;2022-10-31T03:31:22;95542.00;;;14.78;68.15
6132;BME280;3097;42.692;23.278;2022-10-31T03:33:51;95544.25;;;14.75;68.53
6132;BME280;3097;42.692;23.278;2022-10-31T03:36:17;95484.91;;;14.26;69.39
6132;BME280;3097;42.692;23.278;2022-10-31T03:38:45;95544.44;;;14.56;69.43
6132;BME280;3097;42.692;23.278;2022-10-31T03:41:16;95547.94;;;14.50;69.38
6132;BME280;3097;42.692;23.278;2022-10-31T03:43:50;95553.94;;;14.39;69.86
6132;BME280;3097;42.692;23.278;2022-10-31T03:46:17;95561.81;;;14.32;69.78
6132;BME280;3097;42.692;23.278;2022-10-31T03:48:43;95563.50;;;14.27;70.47
6132;BME280;3097;42.692;23.278;2022-10-31T03:51:27;95545.69;;;14.07;70.55
6132;BME280;3097;42.692;23.278;2022-10-31T03:56:36;95568.91;;;14.02;71.03
6132;BME280;3097;42.692;23.278;2022-10-31T03:59:07;95559.78;;;13.88;71.39
6132;BME280;3097;42.692;23.278;2022-10-31T04:01:39;95560.44;;;13.72;71.63
6132;BME280;3097;42.692;23.278;2022-10-31T04:04:06;95571.91;;;13.76;71.69
6132;BME280;3097;42.692;23.278;2022-10-31T04:06:34;95578.88;;;13.64;71.82
6132;BME280;3097;42.692;23.278;2022-10-31T04:09:03;95573.50;;;13.65;72.11
6132;BME280;3097;42.692;23.278;2022-10-31T04:11:34;95570.78;;;13.60;72.66
6132;BME280;3097;42.692;23.278;2022-10-31T04:14:02;95551.34;;;13.39;72.92
6132;BME280;3097;42.692;23.278;2022-10-31T04:16:29;95584.16;;;13.45;73.28
6132;BME280;3097;42.692;23.278;2022-10-31T04:18:55;95580.00;;;13.44;73.42
6132;BME280;3097;42.692;23.278;2022-10-31T04:21:26;95578.84;;;13.40;73.42
6132;BME280;3097;42.692;23.278;2022-10-31T04:23:53;95544.56;;;13.15;73.37
6132;BME280;3097;42.692;23.278;2022-10-31T04:26:18;95569.69;;;13.26;73.71
6132;BME280;3097;42.692;23.278;2022-10-31T04:28:44;95577.63;;;13.43;73.73
6132;BME280;3097;42.692;23.278;2022-10-31T04:31:11;95584.28;;;13.50;73.94
6132;BME280;3097;42.692;23.278;2022-10-31T04:33:37;95583.47;;;13.50;73.52
6132;BME280;3097;42.692;23.278;2022-10-31T04:36:03;95577.41;;;13.44;73.73
6132;BME280;3097;42.692;23.278;2022-10-31T04:38:29;95576.81;;;13.42;73.58
6132;BME280;3097;42.692;23.278;2022-10-31T04:40:55;95570.28;;;13.40;73.64
6132;BME280;3097;42.692;23.278;2022-10-31T04:43:20;95583.59;;;13.43;73.96
6132;BME280;3097;42.692;23.278;2022-10-31T04:45:46;95525.13;;;13.06;73.88
6132;BME280;3097;42.692;23.278;2022-10-31T04:48:11;95481.13;;;12.76;74.28
6132;BME280;3097;42.692;23.278;2022-10-31T04:50:37;95585.03;;;13.39;74.34
6132;BME280;3097;42.692;23.278;2022-10-31T04:53:02;95583.91;;;13.35;74.38
6132;BME280;3097;42.692;23.278;2022-10-31T04:55:28;95581.72;;;13.32;74.28
6132;BME280;3097;42.692;23.278;2022-10-31T04:57:53;95590.06;;;13.34;74.33
6132;BME280;3097;42.692;23.278;2022-10-31T05:00:20;95596.72;;;13.30;74.79
6132;BME280;3097;42.692;23.278;2022-10-31T05:02:51;95595.69;;;13.31;74.84
6132;BME280;3097;42.692;23.278;2022-10-31T05:05:18;95597.72;;;13.29;74.71
6132;BME280;3097;42.692;23.278;2022-10-31T05:07:46;95608.88;;;13.30;74.72
6132;BME280;3097;42.692;23.278;2022-10-31T05:10:14;95607.94;;;13.24;74.78
6132;BME280;3097;42.692;23.278;2022-10-31T05:13:06;95615.44;;;13.14;75.54
6132;BME280;3097;42.692;23.278;2022-10-31T05:15:31;95577.41;;;12.96;75.65
6132;BME280;3097;42.692;23.278;2022-10-31T05:17:57;95606.50;;;13.10;75.62
6132;BME280;3097;42.692;23.278;2022-10-31T05:20:27;95611.66;;;13.10;76.21
6132;BME280;3097;42.692;23.278;2022-10-31T05:22:55;95613.03;;;13.12;75.97
6132;BME280;3097;42.692;23.278;2022-10-31T05:25:23;95610.28;;;13.14;75.75
6132;BME280;3097;42.692;23.278;2022-10-31T05:27:51;95611.66;;;13.10;76.06
6132;BME280;3097;42.692;23.278;2022-10-31T05:30:25;95618.53;;;13.04;76.37
6132;BME280;3097;42.692;23.278;2022-10-31T05:32:51;95623.31;;;13.01;76.58
6132;BME280;3097;42.692;23.278;2022-10-31T05:35:28;95620.75;;;13.01;76.34
6132;BME280;3097;42.692;23.278;2022-10-31T05:37:54;95626.53;;;12.85;76.75
6132;BME280;3097;42.692;23.278;2022-10-31T05:40:21;95506.13;;;12.16;76.60
6132;BME280;3097;42.692;23.278;2022-10-31T05:42:47;95633.53;;;12.96;76.66
6132;BME280;3097;42.692;23.278;2022-10-31T05:45:16;95627.78;;;12.94;77.05
6132;BME280;3097;42.692;23.278;2022-10-31T05:47:49;95630.16;;;12.95;76.80
6132;BME280;3097;42.692;23.278;2022-10-31T05:50:14;95623.94;;;12.85;76.96
6132;BME280;3097;42.692;23.278;2022-10-31T05:52:40;95629.13;;;12.85;77.03
6132;BME280;3097;42.692;23.278;2022-10-31T05:55:05;95629.25;;;12.90;76.94
6132;BME280;3097;42.692;23.278;2022-10-31T05:57:32;95634.13;;;12.79;77.61
6132;BME280;3097;42.692;23.278;2022-10-31T05:59:58;95639.59;;;12.90;77.41
6132;BME280;3097;42.692;23.278;2022-10-31T06:02:24;95643.78;;;12.91;77.22
6132;BME280;3097;42.692;23.278;2022-10-31T06:04:49;95643.31;;;12.94;77.26
6132;BME280;3097;42.692;23.278;2022-10-31T06:07:14;95649.06;;;12.96;76.94
6132;BME280;3097;42.692;23.278;2022-10-31T06:09:41;95649.44;;;12.99;76.64
6132;BME280;3097;42.692;23.278;2022-10-31T06:12:06;95654.69;;;13.11;76.26
6132;BME280;3097;42.692;23.278;2022-10-31T06:14:33;95658.78;;;13.18;75.79
6132;BME280;3097;42.692;23.278;2022-10-31T06:16:58;95653.19;;;13.22;75.96
6132;BME280;3097;42.692;23.278;2022-10-31T06:19:24;95661.00;;;13.33;75.81
6132;BME280;3097;42.692;23.278;2022-10-31T06:21:51;95667.25;;;13.44;75.93
6132;BME280;3097;42.692;23.278;2022-10-31T06:24:17;95624.06;;;13.26;74.92
6132;BME280;3097;42.692;23.278;2022-10-31T06:26:42;95667.78;;;13.64;75.13
6132;BME280;3097;42.692;23.278;2022-10-31T06:29:08;95669.25;;;13.72;73.75
6132;BME280;3097;42.692;23.278;2022-10-31T06:31:33;95672.56;;;13.79;73.91
6132;BME280;3097;42.692;23.278;2022-10-31T06:34:00;95681.81;;;13.86;73.58
6132;BME280;3097;42.692;23.278;2022-10-31T06:36:26;95677.53;;;13.92;73.24
6132;BME280;3097;42.692;23.278;2022-10-31T06:38:51;95680.13;;;13.92;73.07
6132;BME280;3097;42.692;23.278;2022-10-31T06:41:17;95611.88;;;13.56;72.88
6132;BME280;3097;42.692;23.278;2022-10-31T06:43:46;95686.25;;;14.09;73.40
6132;BME280;3097;42.692;23.278;2022-10-31T06:46:11;95682.22;;;14.13;73.43
6132;BME280;3097;42.692;23.278;2022-10-31T06:48:37;95685.63;;;14.25;73.16
6132;BME280;3097;42.692;23.278;2022-10-31T06:51:03;95687.88;;;14.33;72.32
6132;BME280;3097;42.692;23.278;2022-10-31T06:53:29;95691.28;;;14.46;72.58
6132;BME280;3097;42.692;23.278;2022-10-31T06:55:56;95663.53;;;14.34;71.97
6132;BME280;3097;42.692;23.278;2022-10-31T06:58:21;95684.31;;;14.58;71.90
6132;BME280;3097;42.692;23.278;2022-10-31T07:00:47;95689.72;;;14.68;71.24
6132;BME280;3097;42.692;23.278;2022-10-31T07:03:14;95646.53;;;14.50;70.94
6132;BME280;3097;42.692;23.278;2022-10-31T07:05:41;95661.50;;;14.60;70.69
6132;BME280;3097;42.692;23.278;2022-10-31T07:08:11;95692.19;;;14.86;70.56
6132;BME280;3097;42.692;23.278;2022-10-31T07:10:39;95682.47;;;14.93;69.96
6132;BME280;3097;42.692;23.278;2022-10-31T07:13:07;95683.72;;;15.02;69.38
6132;BME280;3097;42.692;23.278;2022-10-31T07:15:36;95686.84;;;15.16;69.85
6132;BME280;3097;42.692;23.278;2022-10-31T07:18:03;95680.34;;;16.32;67.64
6132;BME280;3097;42.692;23.278;2022-10-31T07:20:30;95677.47;;;18.57;61.48
6132;BME280;3097;42.692;23.278;2022-10-31T07:22:56;95664.66;;;20.91;53.42
6132;BME280;3097;42.692;23.278;2022-10-31T07:25:22;95655.56;;;22.89;47.27
6132;BME280;3097;42.692;23.278;2022-10-31T07:27:48;95651.50;;;24.38;43.77
6132;BME280;3097;42.692;23.278;2022-10-31T07:30:14;95656.50;;;25.40;41.00
6132;BME280;3097;42.692;23.278;2022-10-31T07:32:44;95637.16;;;26.03;39.32
6132;BME280;3097;42.692;23.278;2022-10-31T07:35:12;95648.06;;;26.77;38.18
6132;BME280;3097;42.692;23.278;2022-10-31T07:37:38;95657.38;;;26.96;37.62
6132;BME280;3097;42.692;23.278;2022-10-31T07:40:06;95653.31;;;26.99;37.29
6132;BME280;3097;42.692;23.278;2022-10-31T07:42:35;95647.00;;;26.86;37.33
6132;BME280;3097;42.692;23.278;2022-10-31T07:45:06;95646.78;;;26.66;37.71
6132;BME280;3097;42.692;23.278;2022-10-31T07:47:42;95640.88;;;26.38;38.38
6132;BME280;3097;42.692;23.278;2022-10-31T07:50:10;95642.69;;;25.93;39.10
6132;BME280;3097;42.692;23.278;2022-10-31T07:52:35;95626.84;;;25.43;40.32
6132;BME280;3097;42.692;23.278;2022-10-31T07:55:01;95616.94;;;24.99;41.56
6132;BME280;3097;42.692;23.278;2022-10-31T07:57:27;95643.00;;;24.87;42.20
6132;BME280;3097;42.692;23.278;2022-10-31T07:59:53;95651.19;;;24.72;42.82
6132;BME280;3097;42.692;23.278;2022-10-31T08:02:18;95643.31;;;24.53;43.25
6132;BME280;3097;42.692;23.278;2022-10-31T08:04:44;95648.81;;;24.56;43.59
6132;BME280;3097;42.692;23.278;2022-10-31T08:07:09;95647.03;;;24.52;43.48
6132;BME280;3097;42.692;23.278;2022-10-31T08:09:35;95648.59;;;24.53;43.30
6132;BME280;3097;42.692;23.278;2022-10-31T08:12:00;95644.31;;;24.57;43.12
6132;BME280;3097;42.692;23.278;2022-10-31T08:14:27;95650.16;;;24.54;42.79
6132;BME280;3097;42.692;23.278;2022-10-31T08:16:53;95643.00;;;24.41;43.12
6132;BME280;3097;42.692;23.278;2022-10-31T08:19:19;95646.31;;;24.14;43.11
6132;BME280;3097;42.692;23.278;2022-10-31T08:21:44;95634.09;;;24.04;43.70
6132;BME280;3097;42.692;23.278;2022-10-31T08:24:09;95653.91;;;24.20;44.20
6132;BME280;3097;42.692;23.278;2022-10-31T08:26:35;95643.56;;;24.05;43.33
6132;BME280;3097;42.692;23.278;2022-10-31T08:29:00;95653.50;;;24.08;44.45
6132;BME280;3097;42.692;23.278;2022-10-31T08:31:27;95639.38;;;24.04;44.50
6132;BME280;3097;42.692;23.278;2022-10-31T08:33:53;95652.53;;;24.04;44.77
6132;BME280;3097;42.692;23.278;2022-10-31T08:36:20;95653.13;;;24.15;44.28
6132;BME280;3097;42.692;23.278;2022-10-31T08:38:48;95642.97;;;24.08;44.79
6132;BME280;3097;42.692;23.278;2022-10-31T08:41:14;95646.19;;;24.05;44.99
6132;BME280;3097;42.692;23.278;2022-10-31T08:43:39;95629.91;;;23.66;44.75
6132;BME280;3097;42.692;23.278;2022-10-31T08:46:05;95641.16;;;23.52;46.07
6132;BME280;3097;42.692;23.278;2022-10-31T08:48:31;95647.41;;;23.57;45.93
6132;BME280;3097;42.692;23.278;2022-10-31T08:50:58;95602.75;;;23.28;46.06
6132;BME280;3097;42.692;23.278;2022-10-31T08:53:25;95641.09;;;23.58;46.36
6132;BME280;3097;42.692;23.278;2022-10-31T08:55:50;95624.59;;;23.52;46.47
6132;BME280;3097;42.692;23.278;2022-10-31T08:58:19;95644.28;;;23.73;46.88
6132;BME280;3097;42.692;23.278;2022-10-31T09:00:46;95647.06;;;23.82;46.83
6132;BME280;3097;42.692;23.278;2022-10-31T09:03:14;95644.56;;;23.72;45.69
6132;BME280;3097;42.692;23.278;2022-10-31T09:05:40;95661.56;;;23.61;46.45
6132;BME280;3097;42.692;23.278;2022-10-31T09:08:07;95624.81;;;23.32;46.17
6132;BME280;3097;42.692;23.278;2022-10-31T09:10:34;95652.69;;;23.33;47.50
6132;BME280;3097;42.692;23.278;2022-10-31T09:13:03;95655.66;;;23.26;46.60
6132;BME280;3097;42.692;23.278;2022-10-31T09:15:33;95650.81;;;22.91;47.54
6132;BME280;3097;42.692;23.278;2022-10-31T09:17:59;95619.88;;;22.54;48.83
6132;BME280;3097;42.692;23.278;2022-10-31T09:20:26;95645.44;;;22.77;48.58
6132;BME280;3097;42.692;23.278;2022-10-31T09:23:09;95636.78;;;22.71;48.45
6132;BME280;3097;42.692;23.278;2022-10-31T09:25:35;95639.78;;;22.60;48.89
6132;BME280;3097;42.692;23.278;2022-10-31T09:28:02;95641.53;;;22.40;49.66
6132;BME280;3097;42.692;23.278;2022-10-31T09:30:31;95637.25;;;22.21;50.39
6132;BME280;3097;42.692;23.278;2022-10-31T09:33:01;95636.25;;;22.17;50.90
6132;BME280;3097;42.692;23.278;2022-10-31T09:35:27;95600.47;;;21.87;50.84
6132;BME280;3097;42.692;23.278;2022-10-31T09:38:01;95639.41;;;22.14;51.04
6132;BME280;3097;42.692;23.278;2022-10-31T09:40:31;95636.00;;;22.13;51.63
6132;BME280;3097;42.692;23.278;2022-10-31T09:48:25;95627.47;;;22.26;48.43
6132;BME280;3097;42.692;23.278;2022-10-31T09:51:03;95600.22;;;21.83;48.85
6132;BME280;3097;42.692;23.278;2022-10-31T09:53:34;95629.88;;;21.84;48.64
6132;BME280;3097;42.692;23.278;2022-10-31T09:56:06;95625.53;;;21.69;49.80
6132;BME280;3097;42.692;23.278;2022-10-31T09:58:35;95616.66;;;21.60;50.44
6132;BME280;3097;42.692;23.278;2022-10-31T10:01:05;95559.72;;;21.16;51.03
6132;BME280;3097;42.692;23.278;2022-10-31T10:03:47;95622.41;;;21.62;50.25
6132;BME280;3097;42.692;23.278;2022-10-31T10:06:24;95616.03;;;21.73;49.51
6132;BME280;3097;42.692;23.278;2022-10-31T10:08:51;95612.44;;;21.64;49.18
6132;BME280;3097;42.692;23.278;2022-10-31T10:25:25;95594.66;;;21.51;50.38
6132;BME280;3097;42.692;23.278;2022-10-31T10:28:22;95591.78;;;21.52;49.92
6132;BME280;3097;42.692;23.278;2022-10-31T10:33:20;95589.63;;;21.59;48.49
6132;BME280;3097;42.692;23.278;2022-10-31T10:35:59;95579.16;;;21.54;48.32
6132;BME280;3097;42.692;23.278;2022-10-31T10:41:02;95570.25;;;21.55;48.85
6132;BME280;3097;42.692;23.278;2022-10-31T10:43:34;95571.84;;;21.51;49.23
6132;BME280;3097;42.692;23.278;2022-10-31T10:46:19;95566.84;;;21.55;49.36
6132;BME280;3097;42.692;23.278;2022-10-31T10:59:44;95563.53;;;21.73;47.81
6132;BME280;3097;42.692;23.278;2022-10-31T11:02:23;95557.88;;;21.61;47.65
6132;BME280;3097;42.692;23.278;2022-10-31T11:04:54;95549.53;;;21.54;47.96
6132;BME280;3097;42.692;23.278;2022-10-31T11:07:20;95562.13;;;21.52;48.61
6132;BME280;3097;42.692;23.278;2022-10-31T11:09:45;95555.09;;;21.47;49.14
6132;BME280;3097;42.692;23.278;2022-10-31T11:12:29;95552.16;;;21.54;49.07
6132;BME280;3097;42.692;23.278;2022-10-31T11:14:59;95551.84;;;21.60;48.82
6132;BME280;3097;42.692;23.278;2022-10-31T11:17:33;95556.22;;;21.70;47.48
6132;BME280;3097;42.692;23.278;2022-10-31T11:20:05;95547.41;;;21.56;48.54
6132;BME280;3097;42.692;23.278;2022-10-31T11:22:31;95545.94;;;21.74;47.78
6132;BME280;3097;42.692;23.278;2022-10-31T11:24:57;95537.94;;;21.60;48.43
6132;BME280;3097;42.692;23.278;2022-10-31T11:27:24;95536.88;;;21.61;48.52
6132;BME280;3097;42.692;23.278;2022-10-31T11:29:50;95542.91;;;21.61;48.34
6132;BME280;3097;42.692;23.278;2022-10-31T11:32:20;95526.22;;;21.47;47.95
6132;BME280;3097;42.692;23.278;2022-10-31T11:34:49;95531.72;;;21.46;48.35
6132;BME280;3097;42.692;23.278;2022-10-31T11:37:27;95534.19;;;21.66;47.37
6132;BME280;3097;42.692;23.278;2022-10-31T11:39:59;95527.91;;;21.67;47.49
6132;BME280;3097;42.692;23.278;2022-10-31T11:42:34;95523.69;;;21.66;47.46
6132;BME280;3097;42.692;23.278;2022-10-31T11:45:07;95532.72;;;21.55;47.73
6132;BME280;3097;42.692;23.278;2022-10-31T11:47:41;95519.34;;;21.51;47.91
6132;BME280;3097;42.692;23.278;2022-10-31T11:50:20;95523.28;;;21.54;47.41
6132;BME280;3097;42.692;23.278;2022-10-31T11:52:46;95514.56;;;21.63;46.94
6132;BME280;3097;42.692;23.278;2022-10-31T11:57:45;95513.88;;;21.82;46.30
6132;BME280;3097;42.692;23.278;2022-10-31T12:00:22;95504.56;;;21.66;46.81
6132;BME280;3097;42.692;23.278;2022-10-31T12:02:49;95499.41;;;21.55;46.92
6132;BME280;3097;42.692;23.278;2022-10-31T12:05:20;95498.06;;;21.58;47.37
6132;BME280;3097;42.692;23.278;2022-10-31T12:07:47;95497.97;;;21.68;47.26
6132;BME280;3097;42.692;23.278;2022-10-31T12:10:14;95509.38;;;21.87;47.17
6132;BME280;3097;42.692;23.278;2022-10-31T12:20:32;95508.75;;;21.95;46.80
6132;BME280;3097;42.692;23.278;2022-10-31T12:33:47;95500.63;;;21.97;46.80
6132;BME280;3097;42.692;23.278;2022-10-31T12:36:25;95509.59;;;22.20;45.68
6132;BME280;3097;42.692;23.278;2022-10-31T12:44:55;95499.25;;;22.05;46.11
6132;BME280;3097;42.692;23.278;2022-10-31T12:52:39;95496.28;;;22.11;46.38
6132;BME280;3097;42.692;23.278;2022-10-31T12:57:50;95479.09;;;22.00;46.45
6132;BME280;3097;42.692;23.278;2022-10-31T13:00:18;95495.66;;;22.24;46.78
6132;BME280;3097;42.692;23.278;2022-10-31T13:05:33;95499.34;;;22.23;47.27
6132;BME280;3097;42.692;23.278;2022-10-31T13:08:18;95497.53;;;22.19;46.96
6132;BME280;3097;42.692;23.278;2022-10-31T13:10:48;95501.22;;;22.18;46.71
6132;BME280;3097;42.692;23.278;2022-10-31T13:16:03;95488.50;;;22.30;46.08
6132;BME280;3097;42.692;23.278;2022-10-31T13:18:58;95490.34;;;22.29;45.84
6132;BME280;3097;42.692;23.278;2022-10-31T13:21:41;95487.63;;;22.34;45.94
6132;BME280;3097;42.692;23.278;2022-10-31T13:24:16;95483.13;;;22.40;46.25
6132;BME280;3097;42.692;23.278;2022-10-31T13:26:50;95487.91;;;22.33;46.84
6132;BME280;3097;42.692;23.278;2022-10-31T13:32:16;95483.97;;;22.35;46.22
6132;BME280;3097;42.692;23.278;2022-10-31T13:34:46;95473.72;;;22.34;46.52
6132;BME280;3097;42.692;23.278;2022-10-31T13:37:37;95480.88;;;22.52;45.91
6132;BME280;3097;42.692;23.278;2022-10-31T13:43:01;95481.06;;;22.37;46.49
6132;BME280;3097;42.692;23.278;2022-10-31T13:45:30;95480.53;;;22.35;46.17
6132;BME280;3097;42.692;23.278;2022-10-31T13:50:40;95478.97;;;22.34;46.23
6132;BME280;3097;42.692;23.278;2022-10-31T13:53:21;95488.03;;;22.47;45.76
6132;BME280;3097;42.692;23.278;2022-10-31T13:56:15;95486.19;;;22.47;45.35
6132;BME280;3097;42.692;23.278;2022-10-31T13:59:01;95486.56;;;22.35;45.96
6132;BME280;3097;42.692;23.278;2022-10-31T14:01:28;95486.91;;;22.29;46.04
6132;BME280;3097;42.692;23.278;2022-10-31T14:06:58;95488.56;;;22.25;46.25
6132;BME280;3097;42.692;23.278;2022-10-31T14:09:36;95491.50;;;22.18;46.25
6132;BME280;3097;42.692;23.278;2022-10-31T14:12:08;95495.97;;;22.18;46.33
6132;BME280;3097;42.692;23.278;2022-10-31T14:14:43;95481.88;;;22.09;46.00
6132;BME280;3097;42.692;23.278;2022-10-31T14:17:21;95499.09;;;22.20;45.68
6132;BME280;3097;42.692;23.278;2022-10-31T14:22:31;95496.38;;;22.30;44.17
6132;BME280;3097;42.692;23.278;2022-10-31T14:24:57;95496.44;;;22.25;44.90
6132;BME280;3097;42.692;23.278;2022-10-31T14:29:51;95500.91;;;22.24;45.55
6132;BME280;3097;42.692;23.278;2022-10-31T14:34:57;95496.66;;;22.28;45.70
6132;BME280;3097;42.692;23.278;2022-10-31T14:37:30;95505.66;;;22.22;45.81
6132;BME280;3097;42.692;23.278;2022-10-31T14:50:48;95494.91;;;22.19;45.15
6132;BME280;3097;42.692;23.278;2022-10-31T14:53:22;95496.41;;;22.01;45.30
6132;BME280;3097;42.692;23.278;2022-10-31T14:55:54;95504.03;;;21.97;45.90
6132;BME280;3097;42.692;23.278;2022-10-31T14:58:37;95508.03;;;21.90;46.55
6132;BME280;3097;42.692;23.278;2022-10-31T15:01:03;95505.78;;;21.78;46.65
6132;BME280;3097;42.692;23.278;2022-10-31T15:03:30;95502.16;;;21.69;46.83
6132;BME280;3097;42.692;23.278;2022-10-31T15:06:02;95500.69;;;21.58;46.76
6132;BME280;3097;42.692;23.278;2022-10-31T15:08:50;95485.28;;;21.46;46.71
6132;BME280;3097;42.692;23.278;2022-10-31T15:11:24;95500.78;;;21.43;47.04
6132;BME280;3097;42.692;23.278;2022-10-31T15:13:55;95503.47;;;21.38;46.87
6132;BME280;3097;42.692;23.278;2022-10-31T15:16:24;95501.41;;;21.35;46.98
6132;BME280;3097;42.692;23.278;2022-10-31T15:18:56;95507.22;;;21.27;47.58
6132;BME280;3097;42.692;23.278;2022-10-31T15:21:25;95514.31;;;21.16;47.79
6132;BME280;3097;42.692;23.278;2022-10-31T15:23:55;95506.28;;;21.02;48.36
6132;BME280;3097;42.692;23.278;2022-10-31T15:26:23;95521.00;;;20.93;48.47
6132;BME280;3097;42.692;23.278;2022-10-31T15:29:01;95458.88;;;20.44;48.96
6132;BME280;3097;42.692;23.278;2022-10-31T15:31:27;95498.88;;;20.60;49.11
6132;BME280;3097;42.692;23.278;2022-10-31T15:33:53;95523.66;;;20.83;49.53
6132;BME280;3097;42.692;23.278;2022-10-31T15:36:24;95452.63;;;20.35;49.51